createdAt,value
2022-12-23T00:01:52.487Z,11.31
2022-12-23T00:04:19.715Z,11.32
2022-12-23T00:06:46.867Z,11.33
2022-12-23T00:09:14.048Z,11.30
2022-12-23T00:12:01.004Z,11.31
2022-12-23T00:14:46.643Z,11.30
2022-12-23T00:17:29.148Z,11.23
2022-12-23T00:19:56.184Z,11.20
2022-12-23T00:22:42.005Z,11.20
2022-12-23T00:25:09.464Z,11.22
2022-12-23T00:27:37.838Z,11.20
2022-12-23T00:30:08.501Z,11.18
2022-12-23T00:32:35.824Z,11.23
2022-12-23T00:35:02.821Z,11.24
2022-12-23T00:37:33.093Z,11.19
2022-12-23T00:40:18.582Z,11.23
2022-12-23T00:42:54.852Z,11.28
2022-12-23T00:45:22.239Z,11.37
2022-12-23T00:48:07.624Z,11.34
2022-12-23T00:50:38.152Z,11.26
2022-12-23T00:53:06.177Z,11.20
2022-12-23T00:55:33.214Z,11.17
2022-12-23T00:58:00.394Z,11.16
2022-12-23T01:00:45.782Z,11.18
2022-12-23T01:03:33.301Z,11.22
2022-12-23T01:06:01.603Z,11.24
2022-12-23T01:08:29.614Z,11.30
2022-12-23T01:10:56.660Z,11.26
2022-12-23T01:13:23.710Z,11.25
2022-12-23T01:15:50.679Z,11.22
2022-12-23T01:18:17.790Z,11.17
2022-12-23T01:20:45.111Z,11.16
2022-12-23T01:23:12.235Z,11.23
2022-12-23T01:25:39.203Z,11.36
2022-12-23T01:28:06.212Z,11.41
2022-12-23T01:30:33.208Z,11.46
2022-12-23T01:33:00.213Z,11.56
2022-12-23T01:35:27.264Z,11.65
2022-12-23T01:37:55.500Z,11.68
2022-12-23T01:40:22.448Z,11.71
2022-12-23T01:42:49.786Z,11.71
2022-12-23T01:45:21.063Z,11.68
2022-12-23T01:47:48.063Z,11.68
2022-12-23T01:50:28.059Z,11.66
2022-12-23T01:53:06.854Z,11.66
2022-12-23T01:55:42.536Z,11.68
2022-12-23T01:58:22.584Z,11.69
2022-12-23T02:01:08.223Z,11.69
2022-12-23T02:03:42.816Z,11.68
2022-12-23T02:06:52.858Z,11.67
2022-12-23T02:09:31.359Z,11.65
2022-12-23T02:11:58.309Z,11.62
2022-12-23T02:15:02.811Z,11.60
2022-12-23T02:17:45.885Z,11.56
2022-12-23T02:20:37.627Z,11.54
2022-12-23T02:23:55.615Z,11.50
2022-12-23T02:26:58.763Z,11.45
2022-12-23T02:29:31.637Z,11.44
2022-12-23T02:32:03.546Z,11.46
2022-12-23T02:34:41.099Z,11.46
2022-12-23T02:37:24.537Z,11.45
2022-12-23T02:39:55.266Z,11.45
2022-12-23T02:42:44.904Z,11.42
2022-12-23T02:45:14.145Z,11.42
2022-12-23T02:47:48.301Z,11.42
2022-12-23T02:50:21.872Z,11.38
2022-12-23T02:52:51.098Z,11.34
2022-12-23T02:55:24.018Z,11.33
2022-12-23T02:57:55.210Z,11.29
2022-12-23T03:00:23.376Z,11.31
2022-12-23T03:02:50.674Z,11.33
2022-12-23T03:05:25.714Z,11.31
2022-12-23T03:07:55.317Z,11.35
2022-12-23T03:10:42.659Z,11.42
2022-12-23T03:13:27.156Z,11.42
2022-12-23T03:16:03.260Z,11.39
2022-12-23T03:18:47.163Z,11.40
2022-12-23T03:21:32.082Z,11.40
2022-12-23T03:24:04.944Z,11.44
2022-12-23T03:26:42.831Z,11.45
2022-12-23T03:29:23.506Z,11.49
2022-12-23T03:31:52.862Z,11.46
2022-12-23T03:34:24.332Z,11.50
2022-12-23T03:36:59.135Z,11.58
2022-12-23T03:39:33.289Z,11.61
2022-12-23T03:42:07.967Z,11.57
2022-12-23T03:44:39.490Z,11.59
2022-12-23T03:47:23.799Z,11.59
2022-12-23T03:50:00.670Z,11.53
2022-12-23T03:52:32.480Z,11.44
2022-12-23T03:55:06.743Z,11.32
2022-12-23T03:57:52.617Z,11.24
2022-12-23T04:00:19.935Z,11.19
2022-12-23T04:03:09.619Z,11.13
2022-12-23T04:05:40.521Z,11.18
2022-12-23T04:08:16.598Z,11.25
2022-12-23T04:10:43.781Z,11.30
2022-12-23T04:13:10.844Z,11.24
2022-12-23T04:15:42.088Z,11.28
2022-12-23T04:18:10.629Z,11.30
2022-12-23T04:20:37.927Z,11.30
2022-12-23T04:23:05.622Z,11.28
2022-12-23T04:25:32.736Z,11.31
2022-12-23T04:27:59.706Z,11.31
2022-12-23T04:30:33.551Z,11.31
2022-12-23T04:33:01.781Z,11.25
2022-12-23T04:35:28.840Z,11.22
2022-12-23T04:37:55.986Z,11.17
2022-12-23T04:40:23.125Z,11.11
2022-12-23T04:42:50.377Z,11.01
2022-12-23T04:45:18.597Z,10.99
2022-12-23T04:47:45.750Z,11.00
2022-12-23T04:50:17.080Z,10.99
2022-12-23T04:52:44.601Z,10.96
2022-12-23T04:55:12.041Z,10.93
2022-12-23T04:57:39.179Z,10.89
2022-12-23T05:00:06.874Z,10.88
2022-12-23T05:02:35.118Z,10.91
2022-12-23T05:05:02.394Z,10.90
2022-12-23T05:07:29.438Z,10.95
2022-12-23T05:10:02.361Z,10.99
2022-12-23T05:12:31.009Z,11.03
2022-12-23T05:14:58.056Z,11.12
2022-12-23T05:17:25.177Z,11.16
2022-12-23T05:19:52.140Z,11.17
2022-12-23T05:22:19.349Z,11.23
2022-12-23T05:24:46.320Z,11.26
2022-12-23T05:27:13.441Z,11.34
2022-12-23T05:29:40.583Z,11.41
2022-12-23T05:32:08.237Z,11.48
2022-12-23T05:34:35.317Z,11.46
2022-12-23T05:37:02.505Z,11.48
2022-12-23T05:39:29.737Z,11.55
2022-12-23T05:41:56.803Z,11.63
2022-12-23T05:44:24.037Z,11.72
2022-12-23T05:46:51.026Z,11.82
2022-12-23T05:49:18.090Z,11.85
2022-12-23T05:51:45.216Z,11.85
2022-12-23T05:54:12.219Z,11.82
2022-12-23T05:56:39.326Z,11.87
2022-12-23T05:59:06.320Z,11.88
2022-12-23T06:01:33.729Z,11.92
2022-12-23T06:04:00.999Z,11.95
2022-12-23T06:06:28.209Z,11.95
2022-12-23T06:08:59.545Z,11.96
2022-12-23T06:11:28.098Z,11.99
2022-12-23T06:13:55.092Z,12.04
2022-12-23T06:16:22.419Z,12.09
2022-12-23T06:18:49.627Z,12.16
2022-12-23T06:21:16.890Z,12.16
2022-12-23T06:23:43.915Z,12.20
2022-12-23T06:26:10.979Z,12.19
2022-12-23T06:28:38.076Z,12.24
2022-12-23T06:31:05.324Z,12.23
2022-12-23T06:33:32.267Z,12.20
2022-12-23T06:35:59.343Z,12.16
2022-12-23T06:38:26.328Z,12.10
2022-12-23T06:40:53.631Z,12.07
2022-12-23T06:43:20.716Z,12.06
2022-12-23T06:45:48.976Z,12.01
2022-12-23T06:48:16.849Z,12.01
2022-12-23T06:50:44.825Z,12.03
2022-12-23T06:53:11.922Z,12.05
2022-12-23T06:55:39.024Z,12.09
2022-12-23T06:58:06.368Z,12.20
2022-12-23T07:00:33.591Z,12.27
2022-12-23T07:03:00.858Z,12.26
2022-12-23T07:05:34.900Z,12.27
2022-12-23T07:08:04.021Z,12.26
2022-12-23T07:10:31.034Z,12.25
2022-12-23T07:12:58.078Z,12.27
2022-12-23T07:15:25.132Z,12.24
2022-12-23T07:17:52.139Z,12.28
2022-12-23T07:20:19.394Z,12.33
2022-12-23T07:22:46.560Z,12.44
2022-12-23T07:25:13.807Z,12.53
2022-12-23T07:27:40.944Z,12.56
2022-12-23T07:30:08.862Z,12.63
2022-12-23T07:32:35.923Z,12.60
2022-12-23T07:35:03.128Z,12.55
2022-12-23T07:37:30.391Z,12.49
2022-12-23T07:39:57.529Z,12.46
2022-12-23T07:42:44.018Z,12.61
2022-12-23T07:45:11.822Z,12.85
2022-12-23T07:47:38.913Z,12.96
2022-12-23T07:50:08.101Z,13.40
2022-12-23T07:52:35.253Z,13.57
2022-12-23T07:55:02.480Z,13.62
2022-12-23T07:57:29.701Z,13.69
2022-12-23T07:59:56.965Z,13.70
2022-12-23T08:02:25.516Z,13.63
2022-12-23T08:04:52.928Z,13.51
2022-12-23T08:07:19.917Z,13.60
2022-12-23T08:09:47.008Z,13.65
2022-12-23T08:12:14.036Z,13.58
2022-12-23T08:14:41.093Z,13.65
2022-12-23T08:17:08.738Z,13.73
2022-12-23T08:19:37.578Z,13.71
2022-12-23T08:22:04.698Z,13.72
2022-12-23T08:24:31.743Z,13.69
2022-12-23T08:26:58.917Z,13.77
2022-12-23T08:29:28.878Z,13.79
2022-12-23T08:31:58.461Z,13.76
2022-12-23T08:34:25.946Z,13.80
2022-12-23T08:36:53.102Z,13.98
2022-12-23T08:39:20.305Z,14.11
2022-12-23T08:41:48.480Z,14.27
2022-12-23T08:44:17.158Z,14.37
2022-12-23T08:46:45.070Z,14.46
2022-12-23T08:49:12.325Z,14.66
2022-12-23T08:51:39.982Z,14.73
2022-12-23T08:54:07.471Z,14.86
2022-12-23T08:56:39.082Z,15.07
2022-12-23T08:59:07.376Z,15.22
2022-12-23T09:01:35.621Z,15.28
2022-12-23T09:04:05.592Z,15.42
2022-12-23T09:06:36.649Z,15.57
2022-12-23T09:09:05.067Z,15.67
2022-12-23T09:11:33.132Z,15.92
2022-12-23T09:14:01.229Z,16.03
2022-12-23T09:16:29.922Z,16.03
2022-12-23T09:18:57.926Z,15.84
2022-12-23T09:21:25.296Z,15.99
2022-12-23T09:23:52.762Z,16.11
2022-12-23T09:26:26.181Z,16.33
2022-12-23T09:28:53.709Z,16.61
2022-12-23T09:31:22.127Z,16.49
2022-12-23T09:33:51.551Z,16.52
2022-12-23T09:36:18.678Z,16.31
2022-12-23T09:38:45.744Z,16.52
2022-12-23T09:41:32.498Z,16.56
2022-12-23T09:44:32.067Z,16.35
2022-12-23T09:47:03.466Z,16.44
2022-12-23T09:49:34.118Z,16.46
2022-12-23T09:52:05.437Z,16.63
2022-12-23T09:54:42.577Z,16.35
2022-12-23T09:57:36.510Z,16.35
2022-12-23T10:00:15.809Z,16.15
2022-12-23T10:03:16.652Z,16.25
2022-12-23T10:06:04.215Z,16.63
2022-12-23T10:08:43.263Z,17.15
2022-12-23T10:11:26.136Z,17.38
2022-12-23T10:14:01.897Z,17.28
2022-12-23T10:16:41.691Z,17.10
2022-12-23T10:19:32.349Z,16.91
2022-12-23T10:22:04.604Z,16.95
2022-12-23T10:24:42.125Z,16.94
2022-12-23T10:27:20.125Z,16.77
2022-12-23T10:29:47.179Z,16.76
2022-12-23T10:32:40.420Z,17.02
2022-12-23T10:35:45.855Z,17.25
2022-12-23T10:38:30.509Z,17.34
2022-12-23T10:41:41.993Z,17.17
2022-12-23T10:44:46.253Z,17.25
2022-12-23T10:47:25.219Z,17.38
2022-12-23T10:50:17.252Z,17.85
2022-12-23T10:52:47.877Z,18.13
2022-12-23T10:55:33.506Z,17.95
2022-12-23T10:58:09.987Z,18.04
2022-12-23T11:00:41.259Z,18.12
2022-12-23T11:03:20.230Z,17.87
2022-12-23T11:05:50.535Z,17.86
2022-12-23T11:08:18.925Z,17.74
2022-12-23T11:10:46.660Z,17.49
2022-12-23T11:13:32.403Z,17.25
2022-12-23T11:16:17.818Z,17.33
2022-12-23T11:18:56.715Z,17.42
2022-12-23T11:21:24.014Z,17.32
2022-12-23T11:24:18.626Z,17.27
2022-12-23T11:26:49.762Z,17.27
2022-12-23T11:29:28.028Z,17.17
2022-12-23T11:31:56.488Z,17.04
2022-12-23T11:34:27.391Z,17.04
2022-12-23T11:37:05.474Z,17.19
2022-12-23T11:39:37.124Z,17.23
2022-12-23T11:42:06.849Z,17.46
2022-12-23T11:44:43.887Z,17.65
2022-12-23T11:47:29.409Z,17.58
2022-12-23T11:49:59.563Z,17.59
2022-12-23T11:52:30.230Z,17.54
2022-12-23T11:55:01.045Z,17.51
2022-12-23T11:57:48.829Z,17.87
2022-12-23T12:00:21.286Z,18.07
2022-12-23T12:02:55.251Z,18.30
2022-12-23T12:05:38.603Z,18.59
2022-12-23T12:08:21.515Z,18.78
2022-12-23T12:10:52.955Z,18.77
2022-12-23T12:13:31.177Z,18.78
2022-12-23T12:16:17.430Z,18.62
2022-12-23T12:18:52.088Z,18.54
2022-12-23T12:21:26.329Z,18.71
2022-12-23T12:24:17.085Z,18.56
2022-12-23T12:26:51.440Z,18.63
2022-12-23T12:29:45.453Z,18.98
2022-12-23T12:32:34.071Z,18.94
2022-12-23T12:35:06.758Z,18.78
2022-12-23T12:37:41.152Z,18.59
2022-12-23T12:40:37.301Z,18.55
2022-12-23T12:43:24.444Z,18.55
2022-12-23T12:46:00.807Z,18.39
2022-12-23T12:48:49.501Z,18.23
2022-12-23T12:51:26.407Z,18.41
2022-12-23T12:54:04.678Z,18.51
2022-12-23T12:56:57.393Z,18.51
2022-12-23T12:59:36.741Z,18.51
2022-12-23T13:02:25.671Z,18.33
2022-12-23T13:05:20.937Z,18.09
2022-12-23T13:08:21.974Z,17.88
2022-12-23T13:11:30.529Z,17.78
2022-12-23T13:14:20.959Z,17.67
2022-12-23T13:17:03.710Z,17.61
2022-12-23T13:19:46.807Z,17.87
2022-12-23T13:22:23.052Z,18.23
2022-12-23T13:25:03.629Z,18.60
2022-12-23T13:28:08.275Z,18.93
2022-12-23T13:31:19.786Z,18.82
2022-12-23T13:34:10.287Z,19.12
2022-12-23T13:37:12.735Z,19.20
2022-12-23T13:40:07.863Z,19.32
2022-12-23T13:42:41.331Z,19.47
2022-12-23T13:45:15.507Z,19.65
2022-12-23T13:48:05.828Z,19.71
2022-12-23T13:50:53.656Z,19.75
2022-12-23T13:53:51.040Z,19.74
2022-12-23T13:56:34.916Z,19.97
2022-12-23T13:59:02.117Z,19.95
2022-12-23T14:01:40.790Z,19.80
2022-12-23T14:04:32.485Z,19.54
2022-12-23T14:07:04.308Z,19.43
2022-12-23T14:09:39.259Z,19.41
2022-12-23T14:12:41.220Z,19.36
2022-12-23T14:15:28.384Z,19.59
2022-12-23T14:18:04.961Z,19.42
2022-12-23T14:21:06.207Z,19.28
2022-12-23T14:23:44.944Z,19.33
2022-12-23T14:26:17.822Z,19.27
2022-12-23T14:29:35.052Z,19.15
2022-12-23T14:32:03.765Z,19.09
2022-12-23T14:34:33.696Z,19.06
2022-12-23T14:37:17.545Z,19.06
2022-12-23T14:39:46.004Z,18.84
2022-12-23T14:42:33.496Z,18.64
2022-12-23T14:45:36.045Z,18.46
2022-12-23T14:48:37.158Z,18.21
2022-12-23T14:51:29.731Z,17.97
2022-12-23T14:54:00.760Z,17.77
2022-12-23T14:56:31.778Z,17.68
2022-12-23T14:59:18.921Z,17.63
2022-12-23T15:01:55.399Z,17.54
2022-12-23T15:04:29.241Z,17.47
2022-12-23T15:07:06.719Z,17.41
2022-12-23T15:10:00.477Z,17.35
2022-12-23T15:12:34.455Z,17.30
2022-12-23T15:15:27.028Z,17.24
2022-12-23T15:18:13.454Z,17.14
2022-12-23T15:20:42.747Z,17.08
2022-12-23T15:23:15.125Z,16.98
2022-12-23T15:25:49.112Z,16.82
2022-12-23T15:28:21.802Z,16.72
2022-12-23T15:30:56.802Z,16.63
2022-12-23T15:34:01.471Z,16.55
2022-12-23T15:36:27.598Z,16.46
2022-12-23T15:38:54.937Z,16.36
2022-12-23T15:41:22.813Z,16.34
2022-12-23T15:43:50.956Z,16.32
2022-12-23T15:46:29.371Z,16.30
2022-12-23T15:48:58.217Z,16.23
2022-12-23T15:54:37.002Z,16.08
2022-12-23T15:57:04.813Z,16.05
2022-12-23T15:59:35.310Z,16.02
2022-12-23T16:05:31.108Z,15.88
2022-12-23T16:08:31.638Z,15.78
2022-12-23T16:11:15.274Z,15.69
2022-12-23T16:13:58.509Z,15.68
2022-12-23T16:16:41.406Z,15.72
2022-12-23T16:19:39.247Z,15.68
2022-12-23T16:22:30.956Z,15.63
2022-12-23T16:25:04.170Z,15.63
2022-12-23T16:27:34.312Z,15.56
2022-12-23T16:30:04.547Z,15.48
2022-12-23T16:32:31.925Z,15.46
2022-12-23T16:35:13.303Z,15.45
2022-12-23T16:37:49.249Z,15.45
2022-12-23T16:40:20.638Z,15.47
2022-12-23T16:42:51.152Z,15.51
2022-12-23T16:45:18.352Z,15.57
2022-12-23T16:47:45.585Z,15.56
2022-12-23T16:50:16.267Z,15.57
2022-12-23T16:52:43.678Z,15.59
2022-12-23T16:55:19.215Z,15.57
2022-12-23T16:57:46.246Z,15.54
2022-12-23T17:00:16.180Z,15.53
2022-12-23T17:02:44.821Z,15.49
2022-12-23T17:05:17.141Z,15.49
2022-12-23T17:07:45.703Z,15.53
2022-12-23T17:10:15.537Z,15.47
2022-12-23T17:12:43.964Z,15.37
2022-12-23T17:15:18.921Z,15.28
2022-12-23T17:17:46.366Z,15.20
2022-12-23T17:20:13.816Z,15.10
2022-12-23T17:22:43.945Z,15.07
2022-12-23T17:25:18.836Z,15.00
2022-12-23T17:27:50.270Z,14.95
2022-12-23T17:30:20.938Z,15.04
2022-12-23T17:33:00.848Z,15.15
2022-12-23T17:35:28.354Z,15.21
2022-12-23T17:37:55.477Z,15.28
2022-12-23T17:40:22.724Z,15.32
2022-12-23T17:42:49.878Z,15.36
2022-12-23T17:45:26.331Z,15.37
2022-12-23T17:47:53.951Z,15.28
2022-12-23T17:50:21.189Z,15.21
2022-12-23T17:52:48.764Z,15.22
2022-12-23T17:55:23.067Z,15.23
2022-12-23T17:57:50.963Z,15.31
2022-12-23T18:00:29.780Z,15.25
2022-12-23T18:03:01.067Z,15.13
2022-12-23T18:05:31.153Z,15.04
2022-12-23T18:08:00.471Z,14.95
2022-12-23T18:10:31.029Z,14.88
2022-12-23T18:13:03.041Z,14.79
2022-12-23T18:15:42.185Z,14.69
2022-12-23T18:18:19.098Z,14.59
2022-12-23T18:20:53.401Z,14.53
2022-12-23T18:23:31.710Z,14.54
2022-12-23T18:25:59.801Z,14.56
2022-12-23T18:28:27.644Z,14.57
2022-12-23T18:30:58.652Z,14.49
2022-12-23T18:33:28.926Z,14.48
2022-12-23T18:35:56.519Z,14.36
2022-12-23T18:38:23.640Z,14.24
2022-12-23T18:40:54.115Z,14.18
2022-12-23T18:43:24.719Z,14.13
2022-12-23T18:45:54.093Z,14.09
2022-12-23T18:48:21.877Z,14.01
2022-12-23T18:50:49.167Z,14.01
2022-12-23T18:53:25.156Z,13.96
2022-12-23T18:55:54.247Z,13.93
2022-12-23T18:58:22.304Z,13.91
2022-12-23T19:00:51.090Z,13.88
2022-12-23T19:03:26.919Z,13.84
2022-12-23T19:05:55.893Z,13.82
2022-12-23T19:08:27.717Z,13.79
2022-12-23T19:10:55.904Z,13.78
2022-12-23T19:13:23.190Z,13.81
2022-12-23T19:15:50.787Z,13.77
2022-12-23T19:18:20.055Z,13.80
2022-12-23T19:20:48.652Z,13.82
2022-12-23T19:23:16.649Z,13.86
2022-12-23T19:25:52.611Z,13.86
2022-12-23T19:28:22.727Z,13.83
2022-12-23T19:30:50.227Z,13.88
2022-12-23T19:33:17.269Z,13.87
2022-12-23T19:35:46.030Z,13.84
2022-12-23T19:38:13.035Z,13.81
2022-12-23T19:40:40.622Z,13.81
2022-12-23T19:43:08.281Z,13.85
2022-12-23T19:45:35.502Z,13.82
2022-12-23T19:48:02.568Z,13.76
2022-12-23T19:50:29.634Z,13.71
2022-12-23T19:52:57.533Z,13.77
2022-12-23T19:55:24.685Z,13.80
2022-12-23T19:57:52.407Z,13.76
2022-12-23T20:00:19.817Z,13.72
2022-12-23T20:02:46.866Z,13.69
2022-12-23T20:05:14.019Z,13.72
2022-12-23T20:07:40.964Z,13.71
2022-12-23T20:10:08.655Z,13.66
2022-12-23T20:12:35.701Z,13.57
2022-12-23T20:15:02.952Z,13.50
2022-12-23T20:17:30.003Z,13.46
2022-12-23T20:19:57.628Z,13.49
2022-12-23T20:22:24.683Z,13.47
2022-12-23T20:24:51.697Z,13.42
2022-12-23T20:27:24.259Z,13.37
2022-12-23T20:29:55.001Z,13.37
2022-12-23T20:32:22.062Z,13.41
2022-12-23T20:34:50.426Z,13.36
2022-12-23T20:37:17.768Z,13.33
2022-12-23T20:39:45.012Z,13.36
2022-12-23T20:42:12.046Z,13.32
2022-12-23T20:44:39.224Z,13.34
2022-12-23T20:47:06.588Z,13.33
2022-12-23T20:49:33.712Z,13.34
2022-12-23T20:52:01.258Z,13.32
2022-12-23T20:54:33.426Z,13.30
2022-12-23T20:57:01.983Z,13.24
2022-12-23T20:59:29.336Z,13.26
2022-12-23T21:01:59.556Z,13.27
2022-12-23T21:04:27.458Z,13.27
2022-12-23T21:06:54.605Z,13.26
2022-12-23T21:09:21.854Z,13.27
2022-12-23T21:11:48.857Z,13.28
2022-12-23T21:14:16.533Z,13.25
2022-12-23T21:16:43.955Z,13.19
2022-12-23T21:19:22.569Z,13.08
2022-12-23T21:21:50.722Z,13.09
2022-12-23T21:24:18.856Z,13.06
2022-12-23T21:26:55.212Z,13.05
2022-12-23T21:29:23.391Z,12.98
2022-12-23T21:31:50.567Z,12.93
2022-12-23T21:34:18.226Z,12.91
2022-12-23T21:36:45.291Z,12.91
2022-12-23T21:39:16.366Z,12.93
2022-12-23T21:41:43.722Z,12.94
2022-12-23T21:44:13.671Z,12.96
2022-12-23T21:46:40.884Z,12.93
2022-12-23T21:49:07.940Z,12.95
2022-12-23T21:51:40.225Z,12.96
2022-12-23T21:54:10.495Z,12.94
2022-12-23T21:56:38.580Z,12.91
2022-12-23T21:59:12.039Z,12.91
2022-12-23T22:01:38.974Z,12.86
2022-12-23T22:04:06.252Z,12.85
2022-12-23T22:06:38.678Z,12.88
2022-12-23T22:09:07.470Z,12.86
2022-12-23T22:11:36.454Z,12.85
2022-12-23T22:14:05.336Z,12.85
2022-12-23T22:16:33.577Z,13.00
2022-12-23T22:19:01.985Z,13.06
2022-12-23T22:21:30.782Z,13.13
2022-12-23T22:23:58.748Z,13.15
2022-12-23T22:26:30.447Z,13.09
2022-12-23T22:29:00.103Z,13.01
2022-12-23T22:31:40.701Z,12.96
2022-12-23T22:34:09.313Z,12.89
2022-12-23T22:36:36.758Z,12.83
2022-12-23T22:39:05.334Z,12.86
2022-12-23T22:41:34.102Z,12.85
2022-12-23T22:44:01.357Z,12.84
2022-12-23T22:46:29.361Z,12.77
2022-12-23T22:48:56.722Z,12.74
2022-12-23T22:51:29.403Z,12.68
2022-12-23T22:53:57.062Z,12.64
2022-12-23T22:56:25.539Z,12.64
2022-12-23T22:58:53.307Z,12.64
2022-12-23T23:01:22.608Z,12.67
2022-12-23T23:03:56.930Z,12.68
2022-12-23T23:06:37.804Z,12.68
2022-12-23T23:09:12.580Z,12.70
2022-12-23T23:11:39.859Z,12.83
2022-12-23T23:14:07.190Z,12.84
2022-12-23T23:16:34.536Z,12.91
2022-12-23T23:19:03.854Z,12.96
2022-12-23T23:21:31.663Z,12.94
2022-12-23T23:23:58.798Z,12.95
2022-12-23T23:26:27.529Z,12.99
2022-12-23T23:28:55.528Z,13.02
2022-12-23T23:34:09.856Z,13.02
2022-12-23T23:36:36.895Z,12.99
2022-12-23T23:39:04.325Z,12.93
2022-12-23T23:41:31.329Z,12.91
2022-12-23T23:43:58.435Z,12.88
2022-12-23T23:46:25.498Z,12.84
2022-12-23T23:48:52.699Z,12.78
2022-12-23T23:51:19.670Z,12.76
2022-12-23T23:53:46.853Z,12.71
2022-12-23T23:56:13.932Z,12.70
2022-12-23T23:58:41.172Z,12.66
